Terminal Aerodrome Forecast
Issued by NWS Grand Rapids, MI

Home | Current Version | Previous Version | Text Only | Print | Product List | Glossary On
Versions: 1 2 3 4 5 6 7 8 9 10 11 12 13 14 15 16 17 18 19 20
000
FTUS43 KGRR 281700
TAFGRR
TAF
KGRR 281740Z 2818/0118 19009KT P6SM FEW200
     FM010300 15006KT P6SM BKN080
     FM010600 19007KT 4SM -SN OVC015
     FM011400 20005KT P6SM VCSH OVC025=

USA.gov is the U.S. government's official web portal to all federal, state and local government web resources and services.